createdAt,value
2018-03-11T08:52:18.921Z,27.13
2018-03-11T08:54:47.203Z,33.40
2018-03-11T08:57:14.644Z,32.75
2018-03-11T08:59:42.044Z,25.67
2018-03-11T09:02:09.514Z,26.50
2018-03-11T09:04:36.940Z,21.60
2018-03-11T09:07:04.827Z,25.73
2018-03-11T09:09:32.261Z,24.08
2018-03-11T09:11:59.906Z,23.23
2018-03-11T09:14:27.325Z,27.40
2018-03-11T09:16:54.763Z,28.23
2018-03-11T09:19:22.207Z,32.35
2018-03-11T09:21:49.615Z,23.83
2018-03-11T09:24:17.062Z,27.23
2018-03-11T09:26:44.591Z,33.58
2018-03-11T09:29:12.005Z,32.30
2018-03-11T09:31:40.492Z,28.10
2018-03-11T09:34:07.976Z,22.83
2018-03-11T09:36:35.465Z,26.83
2018-03-11T09:39:02.862Z,30.67
2018-03-11T09:41:30.341Z,29.83
2018-03-11T09:43:57.831Z,22.65
2018-03-11T09:46:25.286Z,28.77
2018-03-11T09:48:52.689Z,21.77
2018-03-11T09:51:20.124Z,24.63
2018-03-11T09:53:47.561Z,21.98
2018-03-11T09:56:14.953Z,20.73
2018-03-11T09:58:42.364Z,27.27
2018-03-11T10:01:09.828Z,21.12
2018-03-11T10:03:37.328Z,22.70
2018-03-11T10:06:04.763Z,27.92
2018-03-11T10:08:32.237Z,22.35
2018-03-11T10:10:59.634Z,26.77
2018-03-11T10:13:27.997Z,24.02
2018-03-11T10:15:55.449Z,21.08
2018-03-11T10:18:22.919Z,23.52
2018-03-11T10:20:50.357Z,19.35
2018-03-11T10:23:17.833Z,23.08
2018-03-11T10:25:45.234Z,20.95
2018-03-11T10:28:12.757Z,33.42
2018-03-11T10:30:40.237Z,31.20
2018-03-11T10:33:07.689Z,24.90
2018-03-11T10:35:35.187Z,28.40
2018-03-11T10:38:02.657Z,30.85
2018-03-11T10:40:30.120Z,33.83
2018-03-11T10:42:57.513Z,31.90
2018-03-11T10:45:24.947Z,31.00
2018-03-11T10:47:52.345Z,32.65
2018-03-11T10:50:19.797Z,35.22
2018-03-11T10:52:47.204Z,29.55
2018-03-11T10:55:14.935Z,33.33
2018-03-11T10:57:42.363Z,33.13
2018-03-11T11:00:09.835Z,31.80
2018-03-11T11:02:37.246Z,29.80
2018-03-11T11:05:04.660Z,33.45
2018-03-11T11:07:32.077Z,39.35
2018-03-11T11:09:59.496Z,34.90
2018-03-11T11:12:26.946Z,23.62
2018-03-11T11:14:54.426Z,32.50
2018-03-11T11:17:21.862Z,33.10
2018-03-11T11:19:49.365Z,32.03
2018-03-11T11:22:16.820Z,33.15
2018-03-11T11:24:44.300Z,31.77
2018-03-11T11:27:11.766Z,29.37
2018-03-11T11:29:39.198Z,27.13
2018-03-11T11:32:06.647Z,23.33
2018-03-11T11:34:34.085Z,25.98
2018-03-11T11:37:01.477Z,26.33
2018-03-11T11:39:29.021Z,30.35
2018-03-11T11:41:56.481Z,31.55
2018-03-11T11:44:23.922Z,23.17
2018-03-11T11:46:51.404Z,26.77
2018-03-11T11:49:18.847Z,33.03
2018-03-11T11:51:46.318Z,34.33
2018-03-11T11:54:13.786Z,30.65
2018-03-11T11:56:41.541Z,32.17
2018-03-11T11:59:08.941Z,36.22
2018-03-11T12:01:36.384Z,26.60
2018-03-11T12:04:03.877Z,26.12
2018-03-11T12:06:31.318Z,22.70
2018-03-11T12:08:58.760Z,26.40
2018-03-11T12:11:26.225Z,26.48
2018-03-11T12:13:53.687Z,33.33
2018-03-11T12:16:21.117Z,28.87
2018-03-11T12:18:48.715Z,27.15
2018-03-11T12:21:16.203Z,25.48
2018-03-11T12:23:43.639Z,23.77
2018-03-11T12:26:11.107Z,19.37
2018-03-11T12:28:38.566Z,19.33
2018-03-11T12:31:06.049Z,20.08
2018-03-11T12:33:33.542Z,26.62
2018-03-11T12:36:01.058Z,22.90
2018-03-11T12:38:28.535Z,19.45
2018-03-11T12:40:56.859Z,23.25
2018-03-11T12:43:24.245Z,19.65
2018-03-11T12:45:51.738Z,18.60
2018-03-11T12:48:19.201Z,20.37
2018-03-11T12:50:46.681Z,24.40
2018-03-11T12:53:14.108Z,18.70
2018-03-11T12:55:41.586Z,19.23
2018-03-11T12:58:09.357Z,19.65
2018-03-11T13:00:36.782Z,17.25
2018-03-11T13:03:04.289Z,18.23
2018-03-11T13:05:31.762Z,19.67
2018-03-11T13:07:59.236Z,16.20
2018-03-11T13:10:26.641Z,19.98
2018-03-11T13:12:54.108Z,17.90
2018-03-11T13:15:21.523Z,18.58
2018-03-11T13:17:48.984Z,20.02
2018-03-11T13:20:28.289Z,20.02
2018-03-11T13:22:55.715Z,24.63
2018-03-11T13:25:23.172Z,22.58
2018-03-11T13:28:02.483Z,23.45
2018-03-11T13:30:29.934Z,24.73
2018-03-11T13:33:09.310Z,21.73
2018-03-11T13:35:36.748Z,20.00
2018-03-11T13:38:15.756Z,21.65
2018-03-11T13:40:46.836Z,19.90
2018-03-11T13:43:14.276Z,16.25
2018-03-11T13:45:53.398Z,20.17
2018-03-11T13:48:20.895Z,19.52
2018-03-11T13:50:48.357Z,17.02
2018-03-11T13:53:27.726Z,23.98
2018-03-11T13:55:55.209Z,18.17
2018-03-11T13:58:34.379Z,13.07
2018-03-11T14:01:01.788Z,18.62
2018-03-11T14:03:29.249Z,19.25
2018-03-11T14:05:57.483Z,17.27
2018-03-11T14:08:24.936Z,20.27
2018-03-11T14:10:52.376Z,19.80
2018-03-11T14:13:19.845Z,13.55
2018-03-11T14:15:47.340Z,14.15
2018-03-11T14:18:14.768Z,19.10
2018-03-11T14:20:42.203Z,12.95
2018-03-11T14:23:09.702Z,16.08
2018-03-11T14:25:37.169Z,15.13
2018-03-11T14:28:04.595Z,12.57
2018-03-11T14:30:31.992Z,13.00
2018-03-11T14:32:59.433Z,12.25
2018-03-11T14:35:26.942Z,14.35
2018-03-11T14:37:54.373Z,14.38
2018-03-11T14:40:21.837Z,15.82
2018-03-11T14:42:49.265Z,14.60
2018-03-11T14:45:16.701Z,19.08
2018-03-11T14:47:44.132Z,12.80
2018-03-11T14:50:11.599Z,16.48
2018-03-11T14:52:39.779Z,15.82
2018-03-11T14:55:07.517Z,15.90
2018-03-11T14:57:34.937Z,12.60
2018-03-11T15:00:02.377Z,15.07
2018-03-11T15:02:29.880Z,15.95
2018-03-11T15:04:57.308Z,11.52
2018-03-11T15:07:24.786Z,13.20
2018-03-11T15:09:52.770Z,18.30
2018-03-11T15:12:20.253Z,12.63
2018-03-11T15:14:47.654Z,13.02
2018-03-11T15:17:15.093Z,18.23
2018-03-11T15:19:42.604Z,20.52
2018-03-11T15:22:10.031Z,15.43
2018-03-11T15:24:37.661Z,14.23
2018-03-11T15:27:05.280Z,19.05
2018-03-11T15:29:32.709Z,22.33
2018-03-11T15:32:00.174Z,14.87
2018-03-11T15:34:27.604Z,20.40
2018-03-11T15:36:55.016Z,17.20
2018-03-11T15:39:22.440Z,15.68
2018-03-11T15:41:49.986Z,20.10
2018-03-11T15:44:17.399Z,21.90
2018-03-11T15:46:44.825Z,18.10
2018-03-11T15:49:12.283Z,14.60
2018-03-11T15:51:39.704Z,20.17
2018-03-11T15:54:07.196Z,19.05
2018-03-11T15:56:34.651Z,18.02
2018-03-11T15:59:02.127Z,17.85
2018-03-11T16:01:29.574Z,14.65
2018-03-11T16:03:57.009Z,15.43
2018-03-11T16:06:24.433Z,13.93
2018-03-11T16:08:51.836Z,16.98
2018-03-11T16:11:19.275Z,11.20
2018-03-11T16:13:46.795Z,14.30
2018-03-11T16:16:14.216Z,11.00
2018-03-11T16:18:41.633Z,15.40
2018-03-11T16:21:09.119Z,11.15
2018-03-11T16:23:36.751Z,10.85
2018-03-11T16:26:05.069Z,10.43
2018-03-11T16:28:32.532Z,8.77
2018-03-11T16:30:59.917Z,13.75
2018-03-11T16:33:27.390Z,11.88
2018-03-11T16:35:55.030Z,15.65
2018-03-11T16:38:22.498Z,13.02
2018-03-11T16:40:49.980Z,14.68
2018-03-11T16:43:17.387Z,15.50
2018-03-11T16:45:45.604Z,11.05
2018-03-11T16:48:13.905Z,10.95
2018-03-11T16:50:41.405Z,13.15
2018-03-11T16:53:08.797Z,12.93
2018-03-11T16:55:36.237Z,17.12
2018-03-11T16:58:03.648Z,21.02
2018-03-11T17:00:31.048Z,16.62
2018-03-11T17:02:58.574Z,10.27
2018-03-11T17:05:26.030Z,11.55
2018-03-11T17:07:53.554Z,13.98
2018-03-11T17:10:21.003Z,9.13
2018-03-11T17:12:48.432Z,9.05
2018-03-11T17:15:15.846Z,10.65
2018-03-11T17:17:43.270Z,11.18
2018-03-11T17:20:10.766Z,10.40
2018-03-11T17:22:38.234Z,12.00
2018-03-11T17:25:05.635Z,10.95
2018-03-11T17:27:33.118Z,11.15
2018-03-11T17:30:00.543Z,11.23
2018-03-11T17:32:28.170Z,11.43
2018-03-11T17:34:55.610Z,13.90
2018-03-11T17:37:23.057Z,11.32
2018-03-11T17:39:50.514Z,12.45
2018-03-11T17:42:17.978Z,11.32
2018-03-11T17:44:45.414Z,11.35
2018-03-11T17:47:12.824Z,14.10
2018-03-11T17:49:40.278Z,14.38
2018-03-11T17:52:07.759Z,12.07
2018-03-11T17:54:35.301Z,11.45
2018-03-11T17:57:02.753Z,10.20
2018-03-11T17:59:30.228Z,12.52
2018-03-11T18:01:57.771Z,15.20
2018-03-11T18:04:25.246Z,14.43
2018-03-11T18:06:52.816Z,11.48
2018-03-11T18:09:20.260Z,10.93
2018-03-11T18:11:47.713Z,16.67
2018-03-11T18:14:15.159Z,14.93
2018-03-11T18:16:42.613Z,13.65
2018-03-11T18:19:10.084Z,14.48
2018-03-11T18:21:38.288Z,19.45
2018-03-11T18:24:06.256Z,13.15
2018-03-11T18:26:34.526Z,11.15
2018-03-11T18:29:02.001Z,12.02
2018-03-11T18:31:29.458Z,14.60
2018-03-11T18:33:56.906Z,13.05
2018-03-11T18:36:24.321Z,12.52
2018-03-11T18:38:51.806Z,13.38
2018-03-11T18:41:19.212Z,14.43
2018-03-11T18:43:46.633Z,12.98
2018-03-11T18:46:14.102Z,23.30
2018-03-11T18:48:41.538Z,10.57
2018-03-11T18:51:08.940Z,14.45
2018-03-11T18:53:36.422Z,11.45
2018-03-11T18:56:03.891Z,20.02
2018-03-11T18:58:31.416Z,14.27
2018-03-11T19:00:58.880Z,15.85
2018-03-11T19:03:26.297Z,16.15
2018-03-11T19:05:53.772Z,12.13
2018-03-11T19:08:21.204Z,14.52
2018-03-11T19:10:48.606Z,10.65
2018-03-11T19:13:16.026Z,22.55
2018-03-11T19:15:43.470Z,14.93
2018-03-11T19:18:10.954Z,15.95
2018-03-11T19:20:38.379Z,14.10
2018-03-11T19:23:05.860Z,15.60
2018-03-11T19:25:33.298Z,18.05
2018-03-11T19:28:00.725Z,17.05
2018-03-11T19:30:28.218Z,19.80
2018-03-11T19:32:55.732Z,15.93
2018-03-11T19:35:23.182Z,20.50
2018-03-11T19:37:50.633Z,13.75
2018-03-11T19:40:18.070Z,19.25
2018-03-11T19:42:45.509Z,18.37
2018-03-11T19:45:12.914Z,14.87
2018-03-11T19:47:40.347Z,17.40
2018-03-11T19:50:07.741Z,19.25
2018-03-11T19:52:35.287Z,13.40
2018-03-11T19:55:02.698Z,23.50
2018-03-11T19:57:30.157Z,19.90
2018-03-11T19:59:57.621Z,15.80
2018-03-11T20:02:25.115Z,18.67
2018-03-11T20:04:52.581Z,18.62
2018-03-11T20:07:20.001Z,22.02
2018-03-11T20:09:47.441Z,15.27
2018-03-11T20:12:14.902Z,20.77
2018-03-11T20:14:42.373Z,19.45
2018-03-11T20:17:09.778Z,27.25
2018-03-11T20:19:37.221Z,21.17
2018-03-11T20:22:04.624Z,23.95
2018-03-11T20:24:32.026Z,29.58
2018-03-11T20:26:59.477Z,26.52
2018-03-11T20:29:26.925Z,17.75
2018-03-11T20:31:54.361Z,19.45
2018-03-11T20:34:21.873Z,25.70
2018-03-11T20:36:49.398Z,30.77
2018-03-11T20:39:16.960Z,25.55
2018-03-11T20:41:44.573Z,28.00
2018-03-11T20:44:12.033Z,29.85
2018-03-11T20:46:39.533Z,23.15
2018-03-11T20:49:06.980Z,21.55
2018-03-11T20:51:34.433Z,21.75
2018-03-11T20:54:01.843Z,22.33
2018-03-11T20:56:29.301Z,24.77
2018-03-11T20:58:56.741Z,25.05
2018-03-11T21:01:24.181Z,20.83
2018-03-11T21:03:51.662Z,22.98
2018-03-11T21:06:19.078Z,21.75
2018-03-11T21:08:46.483Z,27.15
2018-03-11T21:11:13.978Z,19.60
2018-03-11T21:13:41.454Z,29.20
2018-03-11T21:16:08.920Z,24.17
2018-03-11T21:18:36.400Z,21.60
2018-03-11T21:21:03.864Z,20.42
2018-03-11T21:23:31.514Z,20.80
2018-03-11T21:25:59.013Z,22.62
2018-03-11T21:28:26.496Z,34.30
2018-03-11T21:30:53.982Z,24.48
2018-03-11T21:33:21.423Z,23.25
2018-03-11T21:35:49.168Z,23.30
2018-03-11T21:38:17.166Z,17.73
2018-03-11T21:40:44.634Z,20.25
2018-03-11T21:43:12.082Z,21.27
2018-03-11T21:45:39.751Z,27.60
2018-03-11T21:48:07.188Z,20.77
2018-03-11T21:50:34.757Z,24.55
2018-03-11T21:53:03.038Z,28.45
2018-03-11T21:55:30.559Z,25.85
2018-03-11T21:57:58.020Z,23.48
2018-03-11T22:00:25.455Z,23.73
2018-03-11T22:02:53.477Z,29.23
2018-03-11T22:05:20.863Z,28.75
2018-03-11T22:07:48.293Z,24.63
2018-03-11T22:10:15.725Z,28.80
2018-03-11T22:12:43.120Z,22.95
2018-03-11T22:15:10.580Z,26.50
2018-03-11T22:17:38.588Z,26.55
2018-03-11T22:20:06.190Z,26.95
2018-03-11T22:22:33.600Z,28.87
2018-03-11T22:25:01.052Z,26.50
2018-03-11T22:27:28.476Z,33.00
2018-03-11T22:29:56.025Z,28.70
2018-03-11T22:32:23.420Z,31.20
2018-03-11T22:34:50.888Z,26.37
2018-03-11T22:37:18.364Z,28.20
2018-03-11T22:39:45.946Z,28.58
2018-03-11T22:42:13.384Z,31.62
2018-03-11T22:44:40.803Z,26.92
2018-03-11T22:47:08.237Z,30.75
2018-03-11T22:49:35.681Z,24.05
2018-03-11T22:52:03.098Z,24.25
2018-03-11T22:54:30.587Z,23.23
2018-03-11T22:56:58.515Z,23.45
2018-03-11T22:59:25.939Z,26.30
2018-03-11T23:01:53.344Z,26.83
2018-03-11T23:04:20.758Z,25.27
2018-03-11T23:06:48.199Z,23.17
2018-03-11T23:09:15.622Z,30.27
2018-03-11T23:11:43.056Z,31.80
2018-03-11T23:14:10.478Z,28.00
2018-03-11T23:16:37.939Z,26.25
2018-03-11T23:19:17.135Z,27.13
2018-03-11T23:21:44.500Z,23.23
2018-03-11T23:24:11.986Z,29.33
2018-03-11T23:26:39.481Z,26.95
2018-03-11T23:29:06.898Z,27.75
2018-03-11T23:31:34.370Z,28.87
2018-03-11T23:34:01.859Z,32.45
2018-03-11T23:36:29.255Z,31.67
2018-03-11T23:38:56.726Z,29.87
2018-03-11T23:41:24.171Z,28.42
2018-03-11T23:43:51.636Z,31.20
2018-03-11T23:46:19.039Z,20.70
2018-03-11T23:48:46.442Z,34.83
2018-03-11T23:51:13.913Z,34.95
2018-03-11T23:53:41.340Z,28.70
2018-03-11T23:56:08.736Z,26.33
2018-03-11T23:58:36.185Z,25.48
